Time;durP1;ratioP1;P1;durP2;ratioP2;P2;SDS_P1;SDS_P2;PMS_P1;PMS_P2;Temp;Humidity;BMP_temperature;BMP_pressure;BME280_temperature;BME280_humidity;BME280_pressure;Samples;Min_cycle;Max_cycle;Signal;HPM_P1;HPM_P2
2021/06/04 00:00:48;;;;;;;;;;;;;;;13.33;57.08;97847.00;1695939;84;20162;-87
2021/06/04 00:03:30;;;;;;;;;;;;;;;13.28;58.13;97845.22;1699505;84;20098;-88
2021/06/04 00:06:00;;;;;;;;;;;;;;;13.25;57.77;97844.13;1712511;84;20188;-88
2021/06/04 00:08:31;;;;;;;;;;;;;;;13.23;58.06;97849.55;1674232;85;20130;-88
2021/06/04 00:11:05;;;;;;;;;;;;;;;13.18;59.26;97849.05;1702944;84;20099;-87
2021/06/04 00:14:00;;;;;;;;;;;;;;;13.16;56.99;97854.12;1711613;84;20111;-88
2021/06/04 00:16:42;;;;;;;;;;;;;;;12.87;57.02;97813.58;1711221;83;20399;-90
2021/06/04 00:19:20;;;;;;;;;;;;;;;13.05;56.68;97847.86;1709775;84;20111;-87
2021/06/04 00:22:14;;;;;;;;;;;;;;;12.99;57.71;97845.70;1712229;84;20156;-93
2021/06/04 00:25:06;;;;;;;;;;;;;;;12.94;57.74;97852.69;1682070;84;20138;-87
2021/06/04 00:27:40;;;;;;;;;;;;;;;12.89;57.86;97852.21;1699523;84;20106;-90
2021/06/04 00:30:28;;;;;;;;;;;;;;;12.86;56.27;97841.00;1728886;81;20122;-89
2021/06/04 00:33:11;;;;;;;;;;;;;;;12.82;59.06;97847.02;1756901;80;20102;-90
2021/06/04 00:38:42;;;;;;;;;;;;;;;12.76;58.72;97849.65;1657207;87;20132;-88
2021/06/04 00:41:38;;;;;;;;;;;;;;;12.74;58.91;97848.95;1648686;87;20365;-89
2021/06/04 00:44:11;;;;;;;;;;;;;;;12.73;59.32;97850.37;1655649;87;20107;-86
2021/06/04 00:47:03;;;;;;;;;;;;;;;12.70;58.63;97857.23;1655162;87;20155;-88
2021/06/04 00:50:03;;;;;;;;;;;;;;;12.68;59.33;97853.37;1628890;88;20172;-88
2021/06/04 00:52:54;;;;;;;;;;;;;;;12.65;60.32;97847.02;1642367;86;20171;-87
2021/06/04 00:55:34;;;;;;;;;;;;;;;12.64;58.85;97844.00;1649607;87;20127;-90
2021/06/04 01:01:00;;;;;;;;;;;;;;;12.60;59.67;97836.78;1560456;91;20112;-88
2021/06/04 01:03:49;;;;;;;;;;;;;;;12.59;58.44;97836.88;1545855;92;20087;-87
2021/06/04 01:06:42;;;;;;;;;;;;;;;12.58;57.49;97841.80;1534681;92;20121;-87
2021/06/04 01:09:59;;;;;;;;;;;;;;;12.55;58.52;97844.21;1468402;97;20743;-88
2021/06/04 01:13:00;;;;;;;;;;;;;;;12.51;60.25;97849.39;1466423;94;20124;-87
2021/06/04 01:16:21;;;;;;;;;;;;;;;12.46;60.32;97849.74;1436126;97;20130;-88
2021/06/04 01:19:38;;;;;;;;;;;;;;;12.42;59.71;97847.45;1437341;100;20150;-88
2021/06/04 01:26:13;;;;;;;;;;;;;;;12.25;62.91;97844.25;1423439;100;20171;-87
2021/06/04 01:29:13;;;;;;;;;;;;;;;12.14;62.40;97848.20;1441837;98;20280;-87
2021/06/04 01:32:13;;;;;;;;;;;;;;;12.00;61.32;97846.09;1435668;95;20125;-86
2021/06/04 01:34:48;;;;;;;;;;;;;;;11.92;62.62;97847.61;1443033;96;20226;-87
2021/06/04 01:37:54;;;;;;;;;;;;;;;11.83;61.89;97847.80;1483583;97;20183;-86
2021/06/04 01:41:00;;;;;;;;;;;;;;;11.75;63.44;97853.63;1489738;93;20201;-87
2021/06/04 01:43:53;;;;;;;;;;;;;;;11.64;62.68;97850.95;1487593;93;20097;-86
2021/06/04 01:46:56;;;;;;;;;;;;;;;11.55;62.33;97854.59;1512408;93;20117;-87
2021/06/04 01:50:06;;;;;;;;;;;;;;;11.47;62.79;97856.12;1465433;96;20123;-86
2021/06/04 01:53:09;;;;;;;;;;;;;;;11.39;62.88;97852.70;1530180;91;20275;-87
2021/06/04 01:55:57;;;;;;;;;;;;;;;11.32;63.63;97853.61;1507922;95;20115;-84
2021/06/04 01:58:34;;;;;;;;;;;;;;;11.26;63.50;97854.06;1481179;96;20150;-87
2021/06/04 02:01:23;;;;;;;;;;;;;;;11.20;63.29;97861.09;1481258;96;20131;-87
2021/06/04 02:04:19;;;;;;;;;;;;;;;11.15;62.88;97857.47;1437568;99;20108;-86
2021/06/04 02:06:57;;;;;;;;;;;;;;;11.11;64.31;97863.07;1431738;100;20141;-85
2021/06/04 02:09:40;;;;;;;;;;;;;;;11.05;61.58;97861.70;1415711;101;20105;-85
2021/06/04 02:12:51;;;;;;;;;;;;;;;11.02;64.16;97861.91;1428194;100;20170;-88
2021/06/04 02:15:49;;;;;;;;;;;;;;;10.97;61.33;97866.18;1435306;97;20193;-85
2021/06/04 02:18:56;;;;;;;;;;;;;;;10.80;63.53;97847.59;1478710;96;20111;-86
2021/06/04 02:22:15;;;;;;;;;;;;;;;10.89;63.93;97865.42;1465901;97;20097;-87
2021/06/04 02:31:27;;;;;;;;;;;;;;;10.79;68.53;97868.31;1508538;94;20261;-86
2021/06/04 02:34:38;;;;;;;;;;;;;;;10.74;65.50;97869.09;1485542;95;20211;-88
2021/06/04 02:37:57;;;;;;;;;;;;;;;10.70;67.75;97867.63;1393756;102;20154;-87
2021/06/04 02:41:03;;;;;;;;;;;;;;;10.68;64.28;97868.20;1419729;100;20126;-90
2021/06/04 02:43:59;;;;;;;;;;;;;;;10.28;62.85;97805.84;1322569;105;20229;-86
2021/06/04 02:47:08;;;;;;;;;;;;;;;10.63;64.06;97866.72;1297057;108;20122;-87
2021/06/04 02:52:54;;;;;;;;;;;;;;;10.62;64.19;97871.61;1255366;110;20167;-87
2021/06/04 02:55:49;;;;;;;;;;;;;;;10.62;64.59;97871.61;1260778;111;20260;-86
2021/06/04 03:01:33;;;;;;;;;;;;;;;10.65;64.31;97885.09;1296816;108;20232;-88
2021/06/04 03:05:09;;;;;;;;;;;;;;;10.66;63.56;97886.77;1288826;108;20275;-87
2021/06/04 03:18:21;;;;;;;;;;;;;;;10.97;61.14;97881.18;1287520;108;20172;-85
2021/06/04 03:21:20;;;;;;;;;;;;;;;11.07;63.31;97887.50;1265395;109;20172;-87
2021/06/04 03:24:14;;;;;;;;;;;;;;;11.15;61.61;97882.99;1308325;110;20149;-87
2021/06/04 03:27:13;;;;;;;;;;;;;;;11.23;60.78;97882.83;1317393;103;20269;-87
2021/06/04 03:30:15;;;;;;;;;;;;;;;11.35;60.77;97882.92;1402013;98;20179;-83
2021/06/04 03:33:26;;;;;;;;;;;;;;;11.45;61.95;97884.42;1358767;104;20241;-86
2021/06/04 03:36:41;;;;;;;;;;;;;;;11.56;62.81;97883.19;1367781;104;20227;-86
2021/06/04 03:39:55;;;;;;;;;;;;;;;11.34;62.74;97831.09;1445454;99;20170;-90
2021/06/04 03:46:02;;;;;;;;;;;;;;;11.91;62.08;97889.02;1481502;96;20095;-88
2021/06/04 03:48:41;;;;;;;;;;;;;;;12.00;61.71;97891.51;1490037;96;20129;-87
2021/06/04 03:58:17;;;;;;;;;;;;;;;12.09;61.01;97889.51;1502242;96;20102;-89
2021/06/04 04:01:11;;;;;;;;;;;;;;;12.13;60.70;97893.59;1490400;95;20170;-89
2021/06/04 04:03:51;;;;;;;;;;;;;;;12.18;61.25;97898.08;1521157;94;20203;-89
2021/06/04 04:06:30;;;;;;;;;;;;;;;12.23;61.06;97898.20;1521260;93;20102;-87
2021/06/04 04:09:04;;;;;;;;;;;;;;;12.25;61.10;97897.13;1536699;86;20149;-90
2021/06/04 04:11:33;;;;;;;;;;;;;;;12.30;61.14;97895.45;1662616;85;20187;-88
2021/06/04 04:14:10;;;;;;;;;;;;;;;12.35;61.91;97898.61;1646032;87;20137;-87
2021/06/04 04:16:52;;;;;;;;;;;;;;;12.39;62.19;97898.73;1656271;86;20125;-88
2021/06/04 04:19:24;;;;;;;;;;;;;;;12.47;60.68;97897.70;1675546;85;20123;-91
2021/06/04 04:21:57;;;;;;;;;;;;;;;12.55;60.75;97904.20;1677031;85;20159;-89
2021/06/04 04:24:38;;;;;;;;;;;;;;;12.64;61.28;97903.51;1625281;87;20174;-91
2021/06/04 04:27:13;;;;;;;;;;;;;;;12.75;61.24;97900.03;1628802;87;20233;-90
2021/06/04 04:29:43;;;;;;;;;;;;;;;12.82;60.55;97907.86;1626596;87;20112;-89
2021/06/04 04:32:13;;;;;;;;;;;;;;;12.92;61.02;97904.05;1630343;88;20164;-90
2021/06/04 04:34:44;;;;;;;;;;;;;;;13.00;59.95;97909.58;1635983;85;20168;-87
2021/06/04 04:37:12;;;;;;;;;;;;;;;13.12;59.82;97909.97;1672600;86;20106;-90
2021/06/04 04:39:41;;;;;;;;;;;;;;;13.24;59.84;97909.95;1671558;86;20457;-88
2021/06/04 04:42:10;;;;;;;;;;;;;;;13.39;59.60;97910.11;1671875;86;20109;-89
2021/06/04 04:44:39;;;;;;;;;;;;;;;13.50;59.22;97906.61;1671007;86;20124;-88
2021/06/04 04:47:09;;;;;;;;;;;;;;;13.64;59.50;97906.83;1672076;86;20398;-89
2021/06/04 04:49:35;;;;;;;;;;;;;;;13.78;58.58;97903.07;1674799;84;20437;-85
2021/06/04 04:52:03;;;;;;;;;;;;;;;13.89;58.51;97899.55;1672360;86;20448;-90
2021/06/04 04:54:30;;;;;;;;;;;;;;;14.03;58.35;97903.72;1672949;86;20109;-90
2021/06/04 04:56:56;;;;;;;;;;;;;;;14.17;58.06;97903.91;1673072;86;20121;-89
2021/06/04 04:59:22;;;;;;;;;;;;;;;14.31;57.73;97904.95;1674205;85;20379;-88
2021/06/04 05:01:52;;;;;;;;;;;;;;;14.47;57.58;97908.51;1696758;83;20125;-88
2021/06/04 05:04:18;;;;;;;;;;;;;;;14.59;57.42;97903.98;1731710;82;20155;-89
2021/06/04 05:06:44;;;;;;;;;;;;;;;14.72;57.04;97905.61;1733306;83;20478;-87
2021/06/04 05:09:10;;;;;;;;;;;;;;;14.86;56.90;97909.28;1716675;83;20183;-89
2021/06/04 05:11:37;;;;;;;;;;;;;;;14.96;56.72;97917.28;1713246;83;20114;-87
2021/06/04 05:14:03;;;;;;;;;;;;;;;15.08;56.52;97911.44;1703952;84;20119;-87
2021/06/04 05:16:30;;;;;;;;;;;;;;;15.21;56.39;97913.37;1717568;83;20100;-88
2021/06/04 05:18:56;;;;;;;;;;;;;;;15.30;56.05;97914.41;1722643;82;20236;-85
2021/06/04 05:21:22;;;;;;;;;;;;;;;15.41;55.80;97918.27;1730655;83;20123;-86
2021/06/04 05:23:48;;;;;;;;;;;;;;;15.51;55.42;97917.47;1729951;82;20120;-87
2021/06/04 05:26:14;;;;;;;;;;;;;;;15.60;54.87;97923.30;1705260;83;20182;-88
2021/06/04 05:28:42;;;;;;;;;;;;;;;15.70;54.61;97920.69;1713783;83;20127;-88
2021/06/04 05:31:11;;;;;;;;;;;;;;;15.78;54.57;97918.19;1720004;83;20146;-84
2021/06/04 05:33:40;;;;;;;;;;;;;;;15.88;55.08;97924.88;1718416;83;20409;-85
2021/06/04 05:36:10;;;;;;;;;;;;;;;15.98;54.37;97926.23;1709179;84;20186;-86
2021/06/04 05:38:36;;;;;;;;;;;;;;;16.04;54.01;97927.87;1715690;83;20121;-86
2021/06/04 05:41:02;;;;;;;;;;;;;;;16.16;53.93;97931.70;1731265;82;20152;-87
2021/06/04 05:43:32;;;;;;;;;;;;;;;16.21;54.23;97932.15;1731350;83;20109;-84
2021/06/04 05:46:00;;;;;;;;;;;;;;;16.27;54.08;97930.25;1706947;83;20109;-87
2021/06/04 05:48:26;;;;;;;;;;;;;;;16.34;53.22;97934.03;1705053;83;20111;-87
2021/06/04 05:50:56;;;;;;;;;;;;;;;16.39;53.59;97936.27;1720825;83;20149;-87
2021/06/04 05:53:26;;;;;;;;;;;;;;;16.46;52.44;97930.77;1719450;83;20146;-86
2021/06/04 05:55:53;;;;;;;;;;;;;;;16.57;53.11;97932.44;1720773;83;20158;-87
2021/06/04 05:58:20;;;;;;;;;;;;;;;16.67;52.61;97941.26;1704034;84;20110;-86
2021/06/04 06:00:50;;;;;;;;;;;;;;;16.74;52.33;97941.54;1708181;83;20099;-86
2021/06/04 06:03:20;;;;;;;;;;;;;;;16.85;52.42;97942.69;1707789;84;20114;-84
2021/06/04 06:05:47;;;;;;;;;;;;;;;17.02;52.96;97947.00;1707885;84;20375;-86
2021/06/04 06:08:13;;;;;;;;;;;;;;;17.11;52.03;97947.46;1708682;82;20119;-85
2021/06/04 06:10:40;;;;;;;;;;;;;;;17.24;50.51;97948.95;1730280;82;20108;-87
2021/06/04 06:13:06;;;;;;;;;;;;;;;17.34;51.13;97943.11;1742059;82;20108;-86
2021/06/04 06:15:32;;;;;;;;;;;;;;;17.43;51.06;97948.89;1723641;82;20112;-87
2021/06/04 06:17:59;;;;;;;;;;;;;;;17.55;50.76;97950.87;1738091;82;20125;-86
2021/06/04 06:20:29;;;;;;;;;;;;;;;17.68;51.01;97949.70;1735406;83;20100;-88
2021/06/04 06:22:55;;;;;;;;;;;;;;;17.76;51.13;97954.66;1708029;84;20139;-89
2021/06/04 06:25:25;;;;;;;;;;;;;;;17.91;50.86;97955.48;1708022;84;20412;-87
2021/06/04 06:27:51;;;;;;;;;;;;;;;18.04;49.63;97954.68;1708658;82;20099;-86
2021/06/04 06:30:21;;;;;;;;;;;;;;;18.18;49.83;97955.14;1713588;83;20097;-89
2021/06/04 06:32:47;;;;;;;;;;;;;;;18.33;50.61;97949.61;1734097;83;20102;-87
2021/06/04 06:35:18;;;;;;;;;;;;;;;18.47;50.40;97950.91;1725725;83;20430;-85
2021/06/04 06:37:45;;;;;;;;;;;;;;;18.62;49.32;97950.39;1726947;83;20437;-87
2021/06/04 06:40:11;;;;;;;;;;;;;;;18.76;49.29;97949.83;1734838;82;20101;-85
2021/06/04 06:42:38;;;;;;;;;;;;;;;18.92;49.70;97949.64;1709394;84;20845;-85
2021/06/04 06:45:08;;;;;;;;;;;;;;;19.08;48.68;97946.25;1713522;82;20139;-87
2021/06/04 06:47:35;;;;;;;;;;;;;;;19.26;48.26;97941.69;1723398;83;20117;-87
2021/06/04 06:50:01;;;;;;;;;;;;;;;19.47;48.04;97941.81;1731705;82;20151;-88
2021/06/04 06:52:30;;;;;;;;;;;;;;;19.66;48.74;97936.73;1723079;82;20126;-86
2021/06/04 06:54:56;;;;;;;;;;;;;;;19.91;46.77;97939.52;1717566;82;20376;-85
2021/06/04 06:57:22;;;;;;;;;;;;;;;20.15;47.79;97937.91;1716561;82;20518;-88
2021/06/04 06:59:49;;;;;;;;;;;;;;;20.37;47.01;97941.82;1716741;83;20107;-88
2021/06/04 07:02:18;;;;;;;;;;;;;;;20.58;46.38;97943.50;1709889;83;20136;-87
2021/06/04 07:04:43;;;;;;;;;;;;;;;20.76;46.29;97939.84;1708089;83;20163;-86
2021/06/04 07:07:09;;;;;;;;;;;;;;;21.00;48.32;97942.19;1726905;82;20128;-91
2021/06/04 07:09:35;;;;;;;;;;;;;;;21.13;44.92;97943.01;1712516;82;20376;-91
2021/06/04 07:12:02;;;;;;;;;;;;;;;21.31;45.93;97942.79;1707641;84;20103;-90
2021/06/04 07:14:30;;;;;;;;;;;;;;;21.46;45.94;97946.45;1715939;82;20100;-88
2021/06/04 07:16:57;;;;;;;;;;;;;;;21.66;42.96;97942.06;1723923;82;20104;-85
2021/06/04 07:19:23;;;;;;;;;;;;;;;21.90;42.92;97941.62;1727773;82;20100;-88
2021/06/04 07:21:50;;;;;;;;;;;;;;;22.12;41.80;97935.97;1735507;83;20374;-89
2021/06/04 07:24:19;;;;;;;;;;;;;;;22.30;41.84;97936.52;1733653;82;20124;-92
2021/06/04 07:26:53;;;;;;;;;;;;;;;22.44;41.57;97940.33;1626118;87;20110;-91
2021/06/04 07:29:22;;;;;;;;;;;;;;;22.65;43.21;97938.83;1616643;89;20122;-89
2021/06/04 07:31:50;;;;;;;;;;;;;;;22.78;40.78;97943.07;1594649;87;20126;-86
2021/06/04 07:34:18;;;;;;;;;;;;;;;22.97;42.24;97942.24;1612782;87;20172;-89
2021/06/04 07:36:47;;;;;;;;;;;;;;;23.11;40.13;97940.59;1617963;89;20138;-89
2021/06/04 07:39:19;;;;;;;;;;;;;;;23.26;39.76;97939.30;1616751;89;20143;-89
2021/06/04 07:41:48;;;;;;;;;;;;;;;23.42;38.53;97939.65;1617060;89;20160;-88
2021/06/04 07:44:16;;;;;;;;;;;;;;;23.59;38.57;97945.69;1618341;89;20122;-84
2021/06/04 07:46:44;;;;;;;;;;;;;;;23.73;39.73;97945.36;1596697;89;20133;-92
2021/06/04 07:49:13;;;;;;;;;;;;;;;23.91;38.58;97936.05;1627420;87;20109;-90
2021/06/04 07:51:44;;;;;;;;;;;;;;;24.03;37.91;97937.27;1622256;89;20146;-91
2021/06/04 07:54:16;;;;;;;;;;;;;;;24.23;37.77;97933.95;1620819;89;20197;-89
2021/06/04 07:56:43;;;;;;;;;;;;;;;24.44;38.26;97933.16;1610496;89;20171;-85
2021/06/04 07:59:09;;;;;;;;;;;;;;;24.52;38.04;97914.16;1611638;89;20544;-82
2021/06/04 08:01:37;;;;;;;;;;;;;;;24.82;38.50;97940.16;1611888;87;20876;-87
2021/06/04 08:04:03;;;;;;;;;;;;;;;25.05;38.90;97934.03;1662508;83;20120;-88
2021/06/04 08:06:29;;;;;;;;;;;;;;;25.24;37.26;97936.55;1733385;83;20097;-84
2021/06/04 08:08:56;;;;;;;;;;;;;;;25.42;37.18;97935.23;1713324;83;20109;-84
2021/06/04 08:11:32;;;;;;;;;;;;;;;25.63;36.71;97937.53;1705566;83;20142;-83
2021/06/04 08:14:04;;;;;;;;;;;;;;;25.90;34.62;97933.61;1693965;84;20120;-87
2021/06/04 08:16:35;;;;;;;;;;;;;;;26.15;38.51;97933.41;1704194;83;20126;-85
2021/06/04 08:18:58;;;;;;;;;;;;;;;26.41;34.17;97931.80;1711540;83;20145;-88
2021/06/04 08:21:28;;;;;;;;;;;;;;;26.70;32.80;97936.53;1734036;83;20141;-87
2021/06/04 08:23:54;;;;;;;;;;;;;;;27.01;31.83;97931.06;1711185;83;20135;-89
2021/06/04 08:26:24;;;;;;;;;;;;;;;27.16;33.64;97928.64;1702162;84;20122;-89
2021/06/04 08:28:50;;;;;;;;;;;;;;;27.31;28.69;97923.85;1724483;83;20450;-90
2021/06/04 08:31:20;;;;;;;;;;;;;;;27.28;29.29;97924.27;1731219;83;20108;-86
2021/06/04 08:33:49;;;;;;;;;;;;;;;27.08;28.73;97849.38;1731028;83;20406;-85
2021/06/04 08:36:24;;;;;;;;;;;;;;;27.85;28.79;97916.95;1735668;83;20097;-90
2021/06/04 08:38:51;;;;;;;;;;;;;;;28.04;28.52;97924.66;1736264;83;20113;-88
2021/06/04 08:41:40;;;;;;;;;;;;;;;28.21;29.08;97923.14;1735877;83;20093;-87
2021/06/04 08:44:27;;;;;;;;;;;;;;;28.38;31.61;97923.16;1735821;83;20193;-84
2021/06/04 08:47:16;;;;;;;;;;;;;;;28.45;28.07;97919.87;1734123;83;20156;-86
2021/06/04 08:49:52;;;;;;;;;;;;;;;28.45;28.96;97914.45;1730765;83;20152;-85
2021/06/04 08:52:43;;;;;;;;;;;;;;;28.29;26.10;97911.77;1694834;84;20453;-86
2021/06/04 08:55:29;;;;;;;;;;;;;;;28.24;25.65;97913.77;1692456;83;20097;-84
2021/06/04 08:57:59;;;;;;;;;;;;;;;27.89;26.29;97910.89;1735078;83;20097;-88
2021/06/04 09:00:29;;;;;;;;;;;;;;;27.79;27.67;97907.80;1697389;83;20132;-90
2021/06/04 09:03:08;;;;;;;;;;;;;;;27.11;26.94;97825.97;1720233;82;20107;-88
2021/06/04 09:05:41;;;;;;;;;;;;;;;27.54;27.89;97897.70;1738548;82;20148;-84
2021/06/04 09:08:13;;;;;;;;;;;;;;;27.26;27.21;97897.93;1719652;82;20151;-90
2021/06/04 09:10:48;;;;;;;;;;;;;;;27.18;27.69;97897.66;1707635;83;20140;-86
2021/06/04 09:13:26;;;;;;;;;;;;;;;27.15;28.25;97902.12;1708098;83;20103;-91
2021/06/04 09:15:55;;;;;;;;;;;;;;;27.21;27.47;97899.92;1707438;84;20099;-85
2021/06/04 09:18:46;;;;;;;;;;;;;;;27.18;29.09;97902.22;1707496;83;20155;-88
2021/06/04 09:21:16;;;;;;;;;;;;;;;27.08;26.30;97901.31;1707558;84;20146;-88
2021/06/04 09:23:44;;;;;;;;;;;;;;;26.63;30.39;97904.61;1703079;84;20162;-89
2021/06/04 09:26:14;;;;;;;;;;;;;;;26.52;26.37;97894.41;1707856;84;20372;-88
2021/06/04 09:28:47;;;;;;;;;;;;;;;26.25;29.09;97891.66;1707697;84;20165;-86
2021/06/04 09:31:42;;;;;;;;;;;;;;;25.95;26.37;97897.36;1707696;84;20423;-86
2021/06/04 09:34:26;;;;;;;;;;;;;;;25.69;27.89;97893.03;1707561;84;20147;-88
2021/06/04 09:36:55;;;;;;;;;;;;;;;25.57;27.77;97890.05;1708038;84;20153;-85
2021/06/04 09:39:37;;;;;;;;;;;;;;;25.43;27.21;97888.86;1708212;84;20111;-87
2021/06/04 09:42:12;;;;;;;;;;;;;;;25.00;29.01;97891.16;1708265;84;20155;-88
2021/06/04 09:44:45;;;;;;;;;;;;;;;24.67;28.57;97887.14;1708598;84;20132;-90
2021/06/04 09:47:18;;;;;;;;;;;;;;;24.69;28.34;97891.02;1699485;84;20128;-85
2021/06/04 09:49:48;;;;;;;;;;;;;;;24.58;27.15;97897.21;1705926;83;20111;-89
2021/06/04 09:52:26;;;;;;;;;;;;;;;24.32;27.63;97901.33;1707792;84;20099;-86
2021/06/04 09:55:22;;;;;;;;;;;;;;;23.82;26.98;97895.78;1707812;84;20162;-86
2021/06/04 09:58:04;;;;;;;;;;;;;;;23.44;27.44;97894.58;1707490;84;20111;-90
2021/06/04 10:00:42;;;;;;;;;;;;;;;23.22;27.90;97895.00;1707139;84;20174;-88
2021/06/04 10:03:27;;;;;;;;;;;;;;;23.11;27.74;97896.77;1702441;84;20132;-87
2021/06/04 10:06:11;;;;;;;;;;;;;;;23.16;27.86;97890.30;1702360;84;20107;-87
2021/06/04 10:08:52;;;;;;;;;;;;;;;23.04;27.15;97889.93;1702166;84;20425;-86
2021/06/04 10:11:34;;;;;;;;;;;;;;;22.90;28.63;97891.09;1702086;84;20143;-90
2021/06/04 10:14:07;;;;;;;;;;;;;;;23.09;29.34;97891.05;1701473;83;20159;-88
2021/06/04 10:17:00;;;;;;;;;;;;;;;23.34;28.92;97888.12;1701956;83;20155;-86
2021/06/04 10:19:22;;;;;;;;;;;;;;;23.55;29.27;97887.88;1700016;84;20148;-86
2021/06/04 10:21:52;;;;;;;;;;;;;;;23.84;28.60;97884.82;1702402;84;20425;-91
2021/06/04 10:24:30;;;;;;;;;;;;;;;24.09;28.18;97879.96;1702380;84;20172;-87
2021/06/04 10:26:59;;;;;;;;;;;;;;;24.32;29.07;97885.17;1702488;84;20115;-90
2021/06/04 10:29:27;;;;;;;;;;;;;;;24.38;27.23;97883.57;1702329;84;20103;-88
2021/06/04 10:32:12;;;;;;;;;;;;;;;24.46;25.06;97875.84;1702046;84;20103;-91
2021/06/04 10:34:58;;;;;;;;;;;;;;;24.51;27.48;97875.27;1702165;84;20417;-91
2021/06/04 10:37:31;;;;;;;;;;;;;;;24.84;29.64;97875.58;1702113;84;20151;-90
2021/06/04 10:40:01;;;;;;;;;;;;;;;25.13;27.60;97873.70;1702152;84;20112;-89
2021/06/04 10:42:40;;;;;;;;;;;;;;;25.39;29.29;97873.53;1701512;84;20104;-87
2021/06/04 10:45:18;;;;;;;;;;;;;;;25.39;25.68;97869.48;1701874;84;20436;-91
2021/06/04 10:48:26;;;;;;;;;;;;;;;25.57;26.36;97867.11;1702093;84;20111;-86
2021/06/04 10:50:52;;;;;;;;;;;;;;;25.74;25.13;97868.14;1701747;83;20393;-89
2021/06/04 10:53:25;;;;;;;;;;;;;;;25.95;25.08;97863.61;1701999;84;20399;-88
2021/06/04 10:56:04;;;;;;;;;;;;;;;26.08;24.26;97870.94;1690819;83;20131;-88
2021/06/04 10:58:37;;;;;;;;;;;;;;;26.11;23.50;97870.05;1702307;84;20143;-87
2021/06/04 11:01:06;;;;;;;;;;;;;;;26.05;25.71;97864.05;1703434;83;20156;-89
2021/06/04 11:03:52;;;;;;;;;;;;;;;26.12;26.63;97858.70;1710578;84;20111;-89
2021/06/04 11:06:25;;;;;;;;;;;;;;;26.16;27.99;97860.79;1710503;84;20107;-89
2021/06/04 11:08:58;;;;;;;;;;;;;;;26.34;25.38;97860.71;1684071;84;20416;-88
2021/06/04 11:11:45;;;;;;;;;;;;;;;26.28;23.36;97862.89;1710468;84;20135;-87
2021/06/04 11:14:35;;;;;;;;;;;;;;;25.80;24.75;97860.56;1710392;84;20522;-84
2021/06/04 11:17:21;;;;;;;;;;;;;;;25.69;24.57;97859.79;1695921;84;20102;-87
2021/06/04 11:19:59;;;;;;;;;;;;;;;25.49;25.90;97855.67;1710523;84;20128;-89
2021/06/04 11:22:44;;;;;;;;;;;;;;;25.64;25.88;97856.88;1709630;84;20139;-88
2021/06/04 11:25:26;;;;;;;;;;;;;;;25.73;26.22;97851.09;1710485;84;20091;-88
2021/06/04 11:27:56;;;;;;;;;;;;;;;25.40;24.28;97851.80;1710337;84;20149;-88
2021/06/04 11:30:26;;;;;;;;;;;;;;;24.97;24.81;97847.05;1709013;84;20404;-85
2021/06/04 11:33:01;;;;;;;;;;;;;;;24.84;26.05;97847.27;1710249;84;20162;-84
2021/06/04 11:35:30;;;;;;;;;;;;;;;24.53;26.30;97850.31;1710487;84;20138;-90
2021/06/04 11:38:03;;;;;;;;;;;;;;;24.66;26.52;97845.05;1710471;84;20123;-89
2021/06/04 11:40:35;;;;;;;;;;;;;;;24.87;25.72;97850.11;1710472;84;20139;-85
2021/06/04 11:43:14;;;;;;;;;;;;;;;24.59;26.00;97849.03;1710521;84;20186;-84
2021/06/04 11:45:44;;;;;;;;;;;;;;;24.63;26.47;97846.28;1710620;84;20099;-86
2021/06/04 11:48:29;;;;;;;;;;;;;;;24.43;26.15;97850.13;1710911;84;20408;-91
2021/06/04 11:51:25;;;;;;;;;;;;;;;24.08;26.35;97846.51;1706255;84;20115;-92
2021/06/04 11:54:10;;;;;;;;;;;;;;;23.80;27.04;97840.48;1712132;84;20102;-90
2021/06/04 11:56:42;;;;;;;;;;;;;;;23.86;26.41;97843.75;1743823;82;20152;-91
2021/06/04 11:59:32;;;;;;;;;;;;;;;23.62;26.49;97834.98;1743455;82;20119;-84
2021/06/04 12:02:03;;;;;;;;;;;;;;;23.75;26.49;97837.52;1727844;82;20107;-88
2021/06/04 12:04:29;;;;;;;;;;;;;;;23.77;26.14;97834.95;1709946;84;20103;-83
2021/06/04 12:06:59;;;;;;;;;;;;;;;23.87;26.77;97830.62;1709427;84;20439;-85
2021/06/04 12:09:34;;;;;;;;;;;;;;;24.06;26.44;97827.01;1709001;84;20376;-83
2021/06/04 12:12:25;;;;;;;;;;;;;;;24.30;27.07;97828.48;1709831;84;20162;-83
2021/06/04 12:15:00;;;;;;;;;;;;;;;24.63;26.52;97823.87;1709732;83;20163;-87
2021/06/04 12:17:34;;;;;;;;;;;;;;;24.95;26.81;97817.60;1710098;84;20155;-82
2021/06/04 12:20:30;;;;;;;;;;;;;;;24.91;23.56;97826.60;1709813;84;20156;-84
2021/06/04 12:23:03;;;;;;;;;;;;;;;25.04;26.42;97821.80;1709766;84;20429;-80
2021/06/04 12:25:42;;;;;;;;;;;;;;;25.15;25.70;97820.40;1709228;84;20465;-80
2021/06/04 12:28:21;;;;;;;;;;;;;;;25.26;25.02;97816.30;1703843;84;20096;-83
2021/06/04 12:31:00;;;;;;;;;;;;;;;25.42;23.73;97815.16;1708629;84;20099;-83
2021/06/04 12:33:41;;;;;;;;;;;;;;;25.53;23.92;97819.14;1709653;84;20135;-85
2021/06/04 12:36:31;;;;;;;;;;;;;;;25.57;26.03;97814.48;1709710;84;20098;-85
2021/06/04 12:39:33;;;;;;;;;;;;;;;25.62;25.46;97821.97;1706078;84;20147;-88
2021/06/04 12:42:26;;;;;;;;;;;;;;;25.52;27.36;97822.36;1676062;86;20177;-84
2021/06/04 12:45:11;;;;;;;;;;;;;;;25.49;26.53;97813.31;1675002;84;20117;-81
2021/06/04 12:47:46;;;;;;;;;;;;;;;25.60;26.30;97807.02;1709378;84;20126;-82
2021/06/04 12:50:31;;;;;;;;;;;;;;;25.45;26.17;97810.72;1750342;81;20450;-86
2021/06/04 12:53:18;;;;;;;;;;;;;;;25.12;23.30;97812.70;1757212;81;20389;-87
2021/06/04 12:55:46;;;;;;;;;;;;;;;24.96;23.77;97815.22;1756945;82;20135;-87
2021/06/04 12:58:19;;;;;;;;;;;;;;;24.72;25.41;97814.64;1755948;82;20137;-81
2021/06/04 13:00:46;;;;;;;;;;;;;;;24.45;25.79;97816.28;1724958;82;20397;-85
2021/06/04 13:03:21;;;;;;;;;;;;;;;24.13;26.45;97815.78;1730002;83;20131;-84
2021/06/04 13:05:50;;;;;;;;;;;;;;;23.87;26.44;97815.81;1730888;83;20160;-81
2021/06/04 13:08:17;;;;;;;;;;;;;;;23.78;26.96;97804.84;1731113;83;20104;-83
2021/06/04 13:10:48;;;;;;;;;;;;;;;23.70;27.01;97813.37;1751464;82;20118;-81
2021/06/04 13:13:26;;;;;;;;;;;;;;;23.54;26.56;97806.84;1744111;82;20160;-83
2021/06/04 13:15:53;;;;;;;;;;;;;;;23.60;27.31;97804.76;1750993;82;20170;-86
2021/06/04 13:18:22;;;;;;;;;;;;;;;23.63;26.55;97800.33;1755279;82;20180;-83
2021/06/04 13:20:54;;;;;;;;;;;;;;;23.80;27.52;97800.11;1731183;83;20149;-85
2021/06/04 13:23:27;;;;;;;;;;;;;;;23.98;26.40;97801.03;1731375;82;20148;-83
2021/06/04 13:26:05;;;;;;;;;;;;;;;24.08;26.51;97797.52;1745183;82;20154;-83
2021/06/04 13:28:41;;;;;;;;;;;;;;;24.00;25.32;97805.72;1739837;82;20102;-82
2021/06/04 13:31:13;;;;;;;;;;;;;;;24.16;27.01;97796.56;1740104;82;20101;-82
2021/06/04 13:33:46;;;;;;;;;;;;;;;24.11;25.66;97800.33;1728032;83;20132;-85
2021/06/04 13:36:13;;;;;;;;;;;;;;;24.14;26.85;97798.60;1736538;83;20144;-84
2021/06/04 13:38:44;;;;;;;;;;;;;;;24.06;26.08;97796.05;1735958;83;20437;-82
2021/06/04 13:41:14;;;;;;;;;;;;;;;24.05;26.45;97801.11;1728704;82;20186;-82
2021/06/04 13:43:48;;;;;;;;;;;;;;;23.95;25.80;97796.02;1743895;82;20239;-81
2021/06/04 13:46:18;;;;;;;;;;;;;;;23.98;26.97;97804.58;1754949;82;20421;-83
2021/06/04 13:49:06;;;;;;;;;;;;;;;23.75;26.24;97796.65;1741548;82;20146;-83
2021/06/04 13:51:39;;;;;;;;;;;;;;;23.56;26.13;97795.39;1750386;81;20395;-82
2021/06/04 13:54:07;;;;;;;;;;;;;;;23.47;26.73;97793.34;1725728;83;20147;-86
2021/06/04 13:56:38;;;;;;;;;;;;;;;23.47;26.89;97793.34;1677291;84;20122;-82
2021/06/04 13:59:13;;;;;;;;;;;;;;;23.46;26.77;97791.67;1705792;84;20102;-81
2021/06/04 14:01:52;;;;;;;;;;;;;;;23.36;26.26;97800.02;1698749;82;20104;-82
2021/06/04 14:04:38;;;;;;;;;;;;;;;23.33;26.67;97799.06;1736836;82;20160;-82
2021/06/04 14:07:08;;;;;;;;;;;;;;;23.35;26.79;97798.87;1715482;82;20154;-82
2021/06/04 14:09:36;;;;;;;;;;;;;;;23.40;26.46;97788.37;1748936;82;20094;-82
2021/06/04 14:12:21;;;;;;;;;;;;;;;23.46;26.81;97789.47;1752993;82;20162;-82
2021/06/04 14:14:51;;;;;;;;;;;;;;;23.57;26.54;97787.64;1753796;81;20157;-82
2021/06/04 14:17:33;;;;;;;;;;;;;;;23.53;26.20;97791.23;1727933;82;20125;-81
2021/06/04 14:20:06;;;;;;;;;;;;;;;23.43;26.30;97783.14;1749970;82;20389;-83
2021/06/04 14:22:41;;;;;;;;;;;;;;;23.36;26.51;97776.34;1745010;82;20248;-81